createdAt,value
2023-04-16T00:03:00.232Z,101706.38
2023-04-16T00:07:01.884Z,101706.38
2023-04-16T00:11:03.429Z,101714.31
2023-04-16T00:15:05.454Z,101709.00
2023-04-16T00:19:07.081Z,101710.81
2023-04-16T00:23:08.558Z,101711.66
2023-04-16T00:27:09.938Z,101715.22
2023-04-16T00:31:11.384Z,101707.25
2023-04-16T00:35:12.760Z,101706.34
2023-04-16T00:39:14.225Z,101710.75
2023-04-16T00:43:24.813Z,101717.91
2023-04-16T00:47:27.968Z,101717.88
2023-04-16T00:51:29.734Z,101723.16
2023-04-16T00:55:31.307Z,101723.19
2023-04-16T00:59:32.853Z,101727.63
2023-04-16T01:03:44.842Z,101716.06
2023-04-16T01:07:46.402Z,101707.19
2023-04-16T01:11:47.819Z,101703.56
2023-04-16T01:15:49.396Z,101713.44
2023-04-16T01:19:50.871Z,101720.47
2023-04-16T01:23:52.265Z,101722.28
2023-04-16T01:27:54.822Z,101720.53
2023-04-16T01:31:56.258Z,101724.09
2023-04-16T01:36:01.691Z,101718.72
2023-04-16T01:40:03.323Z,101726.75
2023-04-16T01:44:04.856Z,101727.59
2023-04-16T01:48:06.738Z,101725.88
2023-04-16T01:52:08.628Z,101733.81
2023-04-16T01:56:10.121Z,101728.50
2023-04-16T02:00:11.707Z,101730.25
2023-04-16T02:04:21.976Z,101725.84
2023-04-16T02:08:23.720Z,101730.25
2023-04-16T02:12:26.144Z,101735.59
2023-04-16T02:16:27.621Z,101734.69
2023-04-16T02:20:43.705Z,101731.13
2023-04-16T02:24:45.401Z,101738.22
2023-04-16T02:28:46.790Z,101740.88
2023-04-16T02:32:49.617Z,101734.69
2023-04-16T02:36:51.935Z,101739.13
2023-04-16T02:40:53.349Z,101736.50
2023-04-16T02:44:54.705Z,101731.19
2023-04-16T02:48:56.111Z,101735.56
2023-04-16T02:52:57.486Z,101734.69
2023-04-16T02:57:48.324Z,101738.25
2023-04-16T03:02:47.686Z,101752.41
2023-04-16T03:07:05.674Z,101755.09
2023-04-16T03:11:41.083Z,101750.66
2023-04-16T03:15:50.862Z,101762.94
2023-04-16T03:20:53.760Z,101764.84
2023-04-16T03:25:59.058Z,101763.88
2023-04-16T03:30:16.451Z,101766.53
2023-04-16T03:34:18.113Z,101763.00
2023-04-16T03:38:20.376Z,101774.50
2023-04-16T03:42:21.927Z,101762.16
2023-04-16T03:46:23.368Z,101767.47
2023-04-16T03:50:25.329Z,101765.69
2023-04-16T03:54:26.902Z,101773.66
2023-04-16T03:58:40.171Z,101774.56
2023-04-16T04:02:43.131Z,101778.09
2023-04-16T04:06:51.760Z,101780.75
2023-04-16T04:10:53.235Z,101783.44
2023-04-16T04:14:57.962Z,101786.09
2023-04-16T04:19:00.288Z,101785.19
2023-04-16T04:23:01.880Z,101786.09
2023-04-16T04:27:03.711Z,101793.16
2023-04-16T04:31:06.927Z,101801.16
2023-04-16T04:35:08.825Z,101798.50
2023-04-16T04:39:10.624Z,101804.72
2023-04-16T04:43:12.424Z,101808.25
2023-04-16T04:47:14.913Z,101808.25
2023-04-16T04:51:16.378Z,101802.91
2023-04-16T04:55:20.447Z,101816.22
2023-04-16T04:59:22.884Z,101825.06
2023-04-16T05:03:24.501Z,101814.38
2023-04-16T05:07:26.103Z,101830.41
2023-04-16T05:11:27.506Z,101833.94
2023-04-16T05:15:29.094Z,101831.22
2023-04-16T05:19:30.577Z,101836.41
2023-04-16T05:23:32.001Z,101840.72
2023-04-16T05:27:33.424Z,101840.13
2023-04-16T05:31:34.813Z,101841.84
2023-04-16T05:35:36.191Z,101846.34
2023-04-16T05:39:37.589Z,101846.38
2023-04-16T05:43:38.989Z,101853.47
2023-04-16T05:47:40.530Z,101855.19
2023-04-16T05:51:41.959Z,101848.16
2023-04-16T05:55:43.481Z,101852.53
2023-04-16T05:59:54.060Z,101857.88
2023-04-16T06:04:03.334Z,101866.75
2023-04-16T06:08:04.901Z,101859.63
2023-04-16T06:12:06.302Z,101858.72
2023-04-16T06:16:07.749Z,101864.94
2023-04-16T06:20:09.743Z,101863.06
2023-04-16T06:24:11.181Z,101874.75
2023-04-16T06:28:12.593Z,101876.38
2023-04-16T06:32:14.098Z,101869.25
2023-04-16T06:47:47.932Z,101903.94
2023-04-16T07:03:01.416Z,101921.75
2023-04-16T07:07:18.342Z,101923.50
2023-04-16T07:11:41.258Z,101932.38
2023-04-16T07:20:12.281Z,101930.56
2023-04-16T07:24:36.407Z,101939.44
2023-04-16T07:29:07.561Z,101943.84
2023-04-16T07:33:21.121Z,101957.22
2023-04-16T07:37:26.106Z,101953.66
2023-04-16T07:41:29.433Z,101964.25
2023-04-16T07:45:30.847Z,101962.56
2023-04-16T07:49:32.220Z,101960.72
2023-04-16T07:53:33.641Z,101976.75
2023-04-16T07:57:35.249Z,101972.25
2023-04-16T08:01:36.640Z,101974.91
2023-04-16T08:05:38.026Z,101983.88
2023-04-16T08:09:53.800Z,101985.41
2023-04-16T08:13:55.341Z,101990.03
2023-04-16T08:17:56.799Z,101995.38
2023-04-16T08:21:58.220Z,102002.47
2023-04-16T08:26:01.087Z,102011.19
2023-04-16T08:30:02.517Z,102003.16
2023-04-16T08:34:03.928Z,102004.94
2023-04-16T08:38:07.321Z,102012.97
2023-04-16T08:42:30.350Z,102011.34
2023-04-16T08:46:36.520Z,102020.94
2023-04-16T08:50:38.737Z,102023.72
2023-04-16T08:55:01.252Z,102030.00
2023-04-16T08:59:05.500Z,102029.94
2023-04-16T09:03:09.119Z,102031.75
2023-04-16T09:07:11.359Z,102028.94
2023-04-16T09:11:18.300Z,102033.31
2023-04-16T09:15:20.928Z,102034.00
2023-04-16T09:19:23.515Z,102033.00
2023-04-16T09:23:25.476Z,102036.41
2023-04-16T09:27:27.736Z,102035.53
2023-04-16T09:31:30.172Z,102048.31
2023-04-16T09:35:53.434Z,102038.53
2023-04-16T09:40:00.778Z,102037.66
2023-04-16T09:44:04.501Z,102040.34
2023-04-16T09:48:06.776Z,102038.88
2023-04-16T09:52:15.856Z,102040.44
2023-04-16T09:56:17.464Z,102052.25
2023-04-16T10:00:19.469Z,102057.75
2023-04-16T10:04:22.412Z,102050.16
2023-04-16T10:08:24.025Z,102064.31
2023-04-16T10:12:25.745Z,102060.06
2023-04-16T10:16:28.079Z,102062.97
2023-04-16T10:20:32.450Z,102063.06
2023-04-16T10:24:35.725Z,102075.09
2023-04-16T10:28:37.446Z,102063.66
2023-04-16T10:32:39.693Z,102086.13
2023-04-16T10:36:41.503Z,102076.53
2023-04-16T10:40:45.243Z,102086.47
2023-04-16T10:44:47.110Z,102080.66
2023-04-16T10:48:52.623Z,102088.28
2023-04-16T10:53:17.969Z,102088.88
2023-04-16T10:57:20.686Z,102091.16
2023-04-16T11:01:41.044Z,102097.81
2023-04-16T11:05:47.020Z,102091.72
2023-04-16T11:10:05.180Z,102098.13
2023-04-16T11:14:09.229Z,102097.94
2023-04-16T11:18:10.847Z,102090.47
2023-04-16T11:22:15.248Z,102095.91
2023-04-16T11:26:27.797Z,102102.00
2023-04-16T11:30:31.171Z,102106.91
2023-04-16T11:34:33.050Z,102104.94
2023-04-16T11:38:36.997Z,102108.72
2023-04-16T11:42:42.750Z,102107.19
2023-04-16T11:46:44.314Z,102109.56
2023-04-16T11:50:56.103Z,102111.38
2023-04-16T11:54:58.218Z,102119.59
2023-04-16T11:59:10.583Z,102121.09
2023-04-16T12:03:12.601Z,102135.41
2023-04-16T12:07:14.384Z,102129.88
2023-04-16T12:11:15.972Z,102126.06
2023-04-16T12:15:17.407Z,102128.88
2023-04-16T12:19:18.876Z,102139.06
2023-04-16T12:23:30.893Z,102130.59
2023-04-16T12:27:51.341Z,102133.41
2023-04-16T12:31:54.564Z,102130.97
2023-04-16T12:35:56.213Z,102139.25
2023-04-16T12:39:57.572Z,102136.84
2023-04-16T12:44:06.991Z,102129.03
2023-04-16T12:48:08.435Z,102134.41
2023-04-16T12:52:09.997Z,102141.88
2023-04-16T12:56:11.425Z,102139.13
2023-04-16T13:00:16.717Z,102135.78
2023-04-16T13:04:19.595Z,102129.22
2023-04-16T13:08:23.992Z,102123.91
2023-04-16T13:12:27.966Z,102132.81
2023-04-16T13:16:29.409Z,102138.16
2023-04-16T13:20:31.008Z,102135.53
2023-04-16T13:24:33.220Z,102136.09
2023-04-16T13:28:36.119Z,102136.19
2023-04-16T13:32:40.889Z,102145.03
2023-04-16T13:36:45.261Z,102150.22
2023-04-16T13:40:48.600Z,102140.59
2023-04-16T13:44:54.304Z,102151.13
2023-04-16T13:48:56.347Z,102143.38
2023-04-16T13:52:59.650Z,102144.78
2023-04-16T13:57:01.529Z,102138.44
2023-04-16T14:01:04.279Z,102134.31
2023-04-16T14:05:07.512Z,102135.84
2023-04-16T14:09:11.300Z,102135.13
2023-04-16T14:13:16.296Z,102141.03
2023-04-16T14:17:17.713Z,102135.03
2023-04-16T14:21:19.164Z,102144.44
2023-04-16T14:25:20.630Z,102145.50
2023-04-16T14:29:21.970Z,102144.22
2023-04-16T14:33:23.706Z,102147.16
2023-04-16T14:37:26.231Z,102148.03
2023-04-16T14:41:27.940Z,102146.56
2023-04-16T14:45:30.825Z,102153.59
2023-04-16T14:49:32.330Z,102156.84
2023-04-16T14:53:34.388Z,102152.44
2023-04-16T14:57:35.914Z,102162.56
2023-04-16T15:01:39.774Z,102172.47
2023-04-16T15:05:41.354Z,102169.78
2023-04-16T15:09:42.805Z,102173.38
2023-04-16T15:13:44.278Z,102179.47
2023-04-16T15:17:45.810Z,102173.28
2023-04-16T15:21:48.824Z,102175.97
2023-04-16T15:25:50.456Z,102181.78
2023-04-16T15:29:53.815Z,102182.53
2023-04-16T15:33:56.085Z,102179.22
2023-04-16T15:37:57.483Z,102180.00
2023-04-16T15:42:01.542Z,102186.63
2023-04-16T15:46:04.645Z,102191.03
2023-04-16T15:50:06.591Z,102200.16
2023-04-16T15:54:08.349Z,102193.47
2023-04-16T15:58:09.838Z,102194.66
2023-04-16T16:02:11.314Z,102198.59
2023-04-16T16:06:12.827Z,102203.50
2023-04-16T16:10:14.222Z,102204.47
2023-04-16T16:14:18.572Z,102205.28
2023-04-16T16:18:21.974Z,102214.34
2023-04-16T16:22:23.754Z,102211.53
2023-04-16T16:26:25.239Z,102213.84
2023-04-16T16:30:27.118Z,102226.06
2023-04-16T16:34:28.559Z,102226.91
2023-04-16T16:38:30.028Z,102226.13
2023-04-16T16:42:31.666Z,102225.28
2023-04-16T16:46:33.141Z,102235.09
2023-04-16T16:50:34.553Z,102231.53
2023-04-16T16:54:36.030Z,102236.91
2023-04-16T16:58:37.504Z,102243.81
2023-04-16T17:02:39.070Z,102236.88
2023-04-16T17:06:40.720Z,102246.72
2023-04-16T17:10:44.517Z,102244.00
2023-04-16T17:14:50.114Z,102256.44
2023-04-16T17:18:51.520Z,102259.09
2023-04-16T17:22:53.071Z,102257.28
2023-04-16T17:26:54.466Z,102260.94
2023-04-16T17:30:56.923Z,102267.09
2023-04-16T17:34:59.694Z,102268.00
2023-04-16T17:39:02.239Z,102273.34
2023-04-16T17:43:04.223Z,102279.56
2023-04-16T17:47:05.714Z,102282.25
2023-04-16T17:51:15.378Z,102278.63
2023-04-16T17:55:16.793Z,102288.41
2023-04-16T17:59:18.247Z,102288.41
2023-04-16T18:03:21.800Z,102287.47
2023-04-16T18:07:23.726Z,102289.25
2023-04-16T18:11:25.164Z,102301.72
2023-04-16T18:15:26.679Z,102300.81
2023-04-16T18:19:28.415Z,102306.13
2023-04-16T18:23:29.782Z,102319.38
2023-04-16T18:27:31.160Z,102325.38
2023-04-16T18:31:32.659Z,102325.44
2023-04-16T18:35:34.117Z,102331.53
2023-04-16T18:39:36.758Z,102336.09
2023-04-16T18:43:38.141Z,102335.84
2023-04-16T18:47:40.124Z,102340.47
2023-04-16T18:51:42.059Z,102350.84
2023-04-16T18:55:43.437Z,102353.50
2023-04-16T18:59:44.863Z,102362.63
2023-04-16T19:03:46.520Z,102366.84
2023-04-16T19:07:47.952Z,102369.47
2023-04-16T19:11:50.398Z,102371.53
2023-04-16T19:15:55.775Z,102371.50
2023-04-16T19:19:57.250Z,102364.34
2023-04-16T19:23:58.728Z,102373.91
2023-04-16T19:28:00.183Z,102387.16
2023-04-16T19:32:02.463Z,102380.97
2023-04-16T19:36:04.216Z,102386.31
2023-04-16T19:40:06.619Z,102387.69
2023-04-16T19:44:08.308Z,102384.78
2023-04-16T19:48:09.776Z,102380.72
2023-04-16T19:52:11.280Z,102390.13
2023-04-16T19:56:14.062Z,102390.06
2023-04-16T20:00:16.101Z,102395.44
2023-04-16T20:04:17.514Z,102392.00
2023-04-16T20:08:18.984Z,102388.31
2023-04-16T20:12:20.486Z,102387.03
2023-04-16T20:16:23.816Z,102389.88
2023-04-16T20:20:25.456Z,102395.13
2023-04-16T20:24:26.803Z,102390.56
2023-04-16T20:28:28.189Z,102395.84
2023-04-16T20:32:29.993Z,102411.59
2023-04-16T20:36:31.818Z,102416.25
2023-04-16T20:40:33.238Z,102421.47
2023-04-16T20:44:40.383Z,102416.16
2023-04-16T20:48:42.124Z,102408.25
2023-04-16T20:52:43.550Z,102416.16
2023-04-16T20:56:44.959Z,102412.69
2023-04-16T21:00:52.587Z,102410.94
2023-04-16T21:04:54.335Z,102409.19
2023-04-16T21:08:56.036Z,102401.31
2023-04-16T21:12:57.407Z,102408.31
2023-04-16T21:16:58.774Z,102405.72
2023-04-16T21:21:00.794Z,102409.13
2023-04-16T21:25:02.613Z,102411.00
2023-04-16T21:29:04.221Z,102418.13
2023-04-16T21:33:05.672Z,102417.31
2023-04-16T21:37:08.232Z,102416.41
2023-04-16T21:41:09.634Z,102418.97
2023-04-16T21:45:11.494Z,102417.13
2023-04-16T21:49:13.179Z,102411.88
2023-04-16T21:53:14.734Z,102417.03
2023-04-16T21:57:16.239Z,102411.59
2023-04-16T22:01:17.715Z,102412.53
2023-04-16T22:05:19.960Z,102408.19
2023-04-16T22:09:27.249Z,102406.47
2023-04-16T22:13:30.088Z,102400.28
2023-04-16T22:17:31.491Z,102405.66
2023-04-16T22:21:32.910Z,102402.13
2023-04-16T22:25:34.302Z,102395.06
2023-04-16T22:29:35.674Z,102394.28
2023-04-16T22:33:37.149Z,102395.09
2023-04-16T22:37:38.588Z,102397.75
2023-04-16T22:41:40.415Z,102395.03
2023-04-16T22:45:43.003Z,102398.56
2023-04-16T22:49:44.419Z,102402.06
2023-04-16T22:53:45.773Z,102406.31
2023-04-16T22:57:47.638Z,102405.41
2023-04-16T23:01:49.508Z,102412.50
2023-04-16T23:05:50.894Z,102417.91
2023-04-16T23:09:52.270Z,102419.69
2023-04-16T23:13:53.887Z,102419.53
2023-04-16T23:17:55.756Z,102419.56
2023-04-16T23:21:57.203Z,102419.59
2023-04-16T23:25:58.627Z,102420.53
2023-04-16T23:30:00.193Z,102422.94
2023-04-16T23:34:01.623Z,102429.72
2023-04-16T23:38:03.331Z,102427.03
2023-04-16T23:42:04.713Z,102419.19
2023-04-16T23:46:06.750Z,102421.22
2023-04-16T23:50:08.252Z,102428.22
2023-04-16T23:54:09.687Z,102417.50
2023-04-16T23:58:11.428Z,102421.28
